Terminal Aerodrome Forecast
Issued by NWS Boston, MA

Current Version | Previous Version | Text Only | Print | Product List | Glossary On
Versions: 1 2 3 4 5 6 7 8 9 10 11 12 13 14 15 16
000 FTUS41 KBOX 261131 AAB TAFORH TAF AMD KORH 261131Z 2612/2712 27004KT P6SM SKC FM270400 25004KT 5SM BR BKN250 FM270600 26004KT 2SM BR SCT003 FM271100 26004KT 1SM BR OVC003=

USA.gov is the U.S. government's official web portal to all federal, state and local government web resources and services.